createdAt,value
2022-12-25T00:02:17.838Z,1.55
2022-12-25T00:04:44.612Z,1.40
2022-12-25T00:07:11.723Z,1.57
2022-12-25T00:09:38.385Z,1.40
2022-12-25T00:12:05.197Z,1.52
2022-12-25T00:14:31.824Z,1.60
2022-12-25T00:16:58.656Z,1.75
2022-12-25T00:19:25.290Z,1.40
2022-12-25T00:21:51.854Z,2.00
2022-12-25T00:24:18.459Z,2.47
2022-12-25T00:26:45.036Z,2.85
2022-12-25T00:29:12.952Z,4.85
2022-12-25T00:31:39.815Z,3.50
2022-12-25T00:34:06.521Z,3.70
2022-12-25T00:36:37.883Z,3.70
2022-12-25T00:39:08.085Z,3.25
2022-12-25T00:41:53.071Z,3.60
2022-12-25T00:44:19.712Z,5.20
2022-12-25T00:46:46.412Z,4.47
2022-12-25T00:49:13.465Z,4.35
2022-12-25T00:51:40.339Z,3.92
2022-12-25T00:54:07.404Z,3.65
2022-12-25T00:56:34.641Z,2.97
2022-12-25T00:59:01.239Z,4.15
2022-12-25T01:01:28.041Z,2.95
2022-12-25T01:03:55.151Z,2.45
2022-12-25T01:06:21.813Z,2.47
2022-12-25T01:09:06.940Z,1.50
2022-12-25T01:11:33.789Z,1.88
2022-12-25T01:14:00.449Z,1.85
2022-12-25T01:16:27.913Z,1.95
2022-12-25T01:18:54.801Z,1.70
2022-12-25T01:21:21.890Z,1.70
2022-12-25T01:23:50.481Z,1.63
2022-12-25T01:26:18.482Z,1.40
2022-12-25T01:28:45.403Z,1.63
2022-12-25T01:31:14.672Z,1.20
2022-12-25T01:33:43.407Z,1.40
2022-12-25T01:36:18.708Z,1.30
2022-12-25T01:38:46.477Z,1.50
2022-12-25T01:41:15.416Z,1.50
2022-12-25T01:43:58.986Z,1.77
2022-12-25T01:46:25.974Z,1.83
2022-12-25T01:48:54.355Z,1.58
2022-12-25T01:51:34.434Z,1.30
2022-12-25T01:54:05.635Z,1.30
2022-12-25T01:56:34.552Z,1.50
2022-12-25T01:59:04.126Z,1.70
2022-12-25T02:01:30.918Z,1.38
2022-12-25T02:04:07.066Z,1.77
2022-12-25T02:06:35.118Z,1.52
2022-12-25T02:09:01.915Z,1.65
2022-12-25T02:11:47.252Z,1.30
2022-12-25T02:14:13.876Z,1.95
2022-12-25T02:16:57.414Z,1.40
2022-12-25T02:19:28.316Z,1.17
2022-12-25T02:22:03.895Z,1.35
2022-12-25T02:24:51.917Z,1.37
2022-12-25T02:27:55.909Z,1.33
2022-12-25T02:30:22.796Z,1.30
2022-12-25T02:33:18.930Z,1.48
2022-12-25T02:35:50.760Z,1.35
2022-12-25T02:38:27.916Z,1.53
2022-12-25T02:40:59.760Z,1.17
2022-12-25T02:43:59.364Z,1.42
2022-12-25T02:46:46.555Z,1.80
2022-12-25T02:49:36.732Z,1.30
2022-12-25T02:52:27.444Z,1.47
2022-12-25T02:55:20.770Z,1.67
2022-12-25T02:58:09.673Z,1.30
2022-12-25T03:01:02.202Z,1.70
2022-12-25T03:03:51.534Z,1.42
2022-12-25T03:06:39.525Z,1.40
2022-12-25T03:09:27.968Z,1.58
2022-12-25T03:12:15.239Z,1.48
2022-12-25T03:15:00.452Z,1.40
2022-12-25T03:17:27.199Z,1.30
2022-12-25T03:20:12.392Z,1.87
2022-12-25T03:23:00.058Z,1.33
2022-12-25T03:25:47.123Z,1.35
2022-12-25T03:28:14.032Z,2.28
2022-12-25T03:31:14.130Z,2.47
2022-12-25T03:34:17.470Z,2.20
2022-12-25T03:37:16.649Z,1.95
2022-12-25T03:40:22.379Z,1.17
2022-12-25T03:43:14.324Z,1.23
2022-12-25T03:46:05.235Z,1.20
2022-12-25T03:48:54.543Z,1.20
2022-12-25T03:51:47.655Z,1.00
2022-12-25T03:54:37.129Z,1.20
2022-12-25T03:57:22.746Z,1.23
2022-12-25T04:00:08.138Z,1.10
2022-12-25T04:02:55.389Z,1.10
2022-12-25T04:05:41.137Z,0.98
2022-12-25T04:08:26.130Z,1.10
2022-12-25T04:11:11.434Z,1.20
2022-12-25T04:13:56.915Z,1.15
2022-12-25T04:16:41.959Z,1.03
2022-12-25T04:19:28.469Z,1.10
2022-12-25T04:22:13.770Z,0.85
2022-12-25T04:24:58.813Z,0.95
2022-12-25T04:27:43.887Z,0.90
2022-12-25T04:30:29.344Z,0.93
2022-12-25T04:33:17.740Z,0.90
2022-12-25T04:36:06.767Z,1.13
2022-12-25T04:38:33.464Z,0.98
2022-12-25T04:41:03.712Z,0.85
2022-12-25T04:43:30.611Z,1.03
2022-12-25T04:45:59.731Z,0.90
2022-12-25T04:48:27.791Z,0.90
2022-12-25T04:50:54.389Z,0.90
2022-12-25T04:53:21.099Z,0.80
2022-12-25T04:55:47.745Z,0.90
2022-12-25T04:58:14.525Z,0.93
2022-12-25T05:00:41.076Z,0.90
2022-12-25T05:03:07.867Z,1.00
2022-12-25T05:05:34.535Z,1.35
2022-12-25T05:08:01.208Z,1.10
2022-12-25T05:10:27.841Z,1.20
2022-12-25T05:12:54.652Z,1.02
2022-12-25T05:15:21.226Z,1.10
2022-12-25T05:17:47.865Z,1.25
2022-12-25T05:20:14.403Z,1.17
2022-12-25T05:22:42.168Z,1.60
2022-12-25T05:25:08.903Z,1.30
2022-12-25T05:27:35.547Z,1.40
2022-12-25T05:30:02.933Z,1.40
2022-12-25T05:32:29.537Z,1.43
2022-12-25T05:34:56.152Z,1.30
2022-12-25T05:37:22.788Z,1.52
2022-12-25T05:39:49.383Z,1.65
2022-12-25T05:42:15.983Z,1.70
2022-12-25T05:44:42.565Z,1.90
2022-12-25T05:47:09.250Z,1.95
2022-12-25T05:49:35.815Z,1.65
2022-12-25T05:52:02.573Z,1.65
2022-12-25T05:54:29.157Z,1.33
2022-12-25T05:56:55.928Z,1.50
2022-12-25T05:59:22.530Z,1.65
2022-12-25T06:01:49.264Z,1.58
2022-12-25T06:04:16.040Z,2.55
2022-12-25T06:06:42.719Z,3.53
2022-12-25T06:09:11.681Z,2.93
2022-12-25T06:11:38.325Z,5.13
2022-12-25T06:14:05.733Z,2.03
2022-12-25T06:16:37.913Z,1.90
2022-12-25T06:19:05.009Z,2.92
2022-12-25T06:21:32.075Z,1.80
2022-12-25T06:24:02.145Z,2.20
2022-12-25T06:26:28.810Z,1.63
2022-12-25T06:28:55.364Z,1.88
2022-12-25T06:31:23.680Z,1.80
2022-12-25T06:33:50.645Z,2.13
2022-12-25T06:36:19.785Z,2.33
2022-12-25T06:38:46.910Z,2.10
2022-12-25T06:41:16.855Z,1.70
2022-12-25T06:43:43.860Z,2.00
2022-12-25T06:46:12.382Z,1.57
2022-12-25T06:48:40.700Z,1.88
2022-12-25T06:51:07.908Z,2.08
2022-12-25T06:53:39.716Z,2.83
2022-12-25T06:56:15.240Z,2.90
2022-12-25T06:58:50.263Z,4.30
2022-12-25T07:01:19.799Z,3.03
2022-12-25T07:03:48.500Z,1.73
2022-12-25T07:06:15.229Z,2.00
2022-12-25T07:08:41.781Z,3.47
2022-12-25T07:11:08.902Z,2.90
2022-12-25T07:13:35.491Z,3.22
2022-12-25T07:16:04.097Z,2.80
2022-12-25T07:18:31.547Z,2.90
2022-12-25T07:20:59.711Z,3.10
2022-12-25T07:23:26.866Z,3.63
2022-12-25T07:25:58.326Z,3.42
2022-12-25T07:28:26.010Z,2.70
2022-12-25T07:30:53.206Z,2.90
2022-12-25T07:33:20.106Z,3.10
2022-12-25T07:35:46.922Z,3.10
2022-12-25T07:38:13.554Z,4.50
2022-12-25T07:40:40.158Z,6.68
2022-12-25T07:43:06.812Z,6.60
2022-12-25T07:45:33.810Z,6.15
2022-12-25T07:48:05.206Z,4.60
2022-12-25T07:50:33.084Z,4.68
2022-12-25T07:52:59.761Z,5.25
2022-12-25T07:55:26.435Z,4.18
2022-12-25T07:57:53.388Z,3.92
2022-12-25T08:00:20.509Z,5.93
2022-12-25T08:02:50.422Z,5.70
2022-12-25T08:05:17.331Z,6.47
2022-12-25T08:07:44.121Z,6.07
2022-12-25T08:10:11.314Z,6.68
2022-12-25T08:12:37.967Z,7.47
2022-12-25T08:15:05.451Z,6.10
2022-12-25T08:17:34.738Z,5.78
2022-12-25T08:20:01.411Z,5.53
2022-12-25T08:22:27.990Z,6.28
2022-12-25T08:24:54.631Z,8.40
2022-12-25T08:27:24.247Z,6.75
2022-12-25T08:29:50.793Z,10.25
2022-12-25T08:32:17.347Z,10.70
2022-12-25T08:34:43.967Z,6.35
2022-12-25T08:37:10.520Z,9.50
2022-12-25T08:39:37.218Z,6.78
2022-12-25T08:42:04.004Z,7.10
2022-12-25T08:44:30.653Z,7.93
2022-12-25T08:46:57.330Z,25.90
2022-12-25T08:49:27.327Z,37.70
2022-12-25T08:51:54.191Z,36.25
2022-12-25T08:54:20.803Z,20.75
2022-12-25T08:56:47.786Z,21.90
2022-12-25T08:59:14.333Z,17.75
2022-12-25T09:01:41.060Z,22.93
2022-12-25T09:04:07.829Z,15.35
2022-12-25T09:06:34.517Z,7.60
2022-12-25T09:09:01.153Z,7.90
2022-12-25T09:11:27.866Z,13.32
2022-12-25T09:13:54.502Z,11.87
2022-12-25T09:16:23.083Z,13.85
2022-12-25T09:18:51.139Z,15.57
2022-12-25T09:21:18.809Z,17.42
2022-12-25T09:23:45.551Z,16.83
2022-12-25T09:26:14.609Z,15.50
2022-12-25T09:28:46.630Z,18.50
2022-12-25T09:31:17.209Z,18.30
2022-12-25T09:33:43.888Z,19.25
2022-12-25T09:36:11.051Z,19.73
2022-12-25T09:38:37.668Z,19.53
2022-12-25T09:41:41.704Z,24.45
2022-12-25T09:44:12.012Z,16.85
2022-12-25T09:46:44.653Z,16.15
2022-12-25T09:49:17.017Z,16.77
2022-12-25T09:51:45.758Z,17.37
2022-12-25T09:54:29.791Z,18.02
2022-12-25T09:56:56.466Z,15.90
2022-12-25T09:59:27.354Z,23.27
2022-12-25T10:02:24.373Z,23.13
2022-12-25T10:05:08.390Z,22.08
2022-12-25T10:07:50.689Z,23.75
2022-12-25T10:10:45.299Z,27.77
2022-12-25T10:13:40.593Z,26.48
2022-12-25T10:16:22.456Z,22.92
2022-12-25T10:19:02.120Z,18.95
2022-12-25T10:21:29.123Z,20.73
2022-12-25T10:23:58.750Z,20.15
2022-12-25T10:26:26.491Z,18.58
2022-12-25T10:29:00.150Z,20.67
2022-12-25T10:31:29.027Z,22.40
2022-12-25T10:33:56.368Z,22.17
2022-12-25T10:36:28.989Z,21.80
2022-12-25T10:38:56.304Z,23.25
2022-12-25T10:41:41.349Z,24.77
2022-12-25T10:44:20.137Z,25.40
2022-12-25T10:46:55.636Z,28.30
2022-12-25T10:49:25.957Z,34.00
2022-12-25T10:51:52.895Z,31.85
2022-12-25T10:54:21.605Z,28.17
2022-12-25T10:57:01.326Z,30.38
2022-12-25T10:59:30.831Z,26.98
2022-12-25T11:02:11.340Z,23.42
2022-12-25T11:04:38.313Z,13.48
2022-12-25T11:07:19.296Z,14.68
2022-12-25T11:09:51.784Z,22.85
2022-12-25T11:12:20.716Z,22.30
2022-12-25T11:14:58.612Z,22.25
2022-12-25T11:17:26.973Z,19.67
2022-12-25T11:20:02.935Z,17.20
2022-12-25T11:22:31.709Z,16.47
2022-12-25T11:25:11.768Z,9.95
2022-12-25T11:27:38.369Z,9.10
2022-12-25T11:30:12.660Z,14.13
2022-12-25T11:32:47.489Z,7.57
2022-12-25T11:35:17.342Z,10.82
2022-12-25T11:37:52.271Z,13.73
2022-12-25T11:40:24.563Z,9.50
2022-12-25T11:43:07.552Z,16.58
2022-12-25T11:45:39.078Z,12.07
2022-12-25T11:48:25.740Z,13.73
2022-12-25T11:50:59.275Z,9.40
2022-12-25T11:53:41.264Z,13.75
2022-12-25T11:56:11.719Z,17.63
2022-12-25T11:58:57.773Z,25.52
2022-12-25T12:01:33.552Z,15.70
2022-12-25T12:04:03.049Z,9.57
2022-12-25T12:06:44.679Z,7.82
2022-12-25T12:09:36.310Z,9.15
2022-12-25T12:12:17.852Z,6.45
2022-12-25T12:14:56.042Z,7.65
2022-12-25T12:17:22.770Z,4.97
2022-12-25T12:19:49.526Z,9.45
2022-12-25T12:22:24.219Z,7.22
2022-12-25T12:24:59.827Z,5.68
2022-12-25T12:27:38.951Z,5.95
2022-12-25T12:30:07.402Z,4.75
2022-12-25T12:32:36.566Z,7.82
2022-12-25T12:35:16.394Z,6.13
2022-12-25T12:37:46.417Z,7.05
2022-12-25T12:40:27.217Z,7.88
2022-12-25T12:42:54.580Z,5.60
2022-12-25T12:45:29.227Z,5.55
2022-12-25T12:47:56.643Z,7.78
2022-12-25T12:50:34.273Z,6.68
2022-12-25T12:53:26.608Z,7.15
2022-12-25T12:55:53.310Z,11.45
2022-12-25T12:58:34.887Z,12.25
2022-12-25T13:01:26.692Z,7.85
2022-12-25T13:04:29.909Z,11.93
2022-12-25T13:07:11.366Z,8.25
2022-12-25T13:10:06.084Z,7.10
2022-12-25T13:12:32.984Z,12.73
2022-12-25T13:15:00.469Z,9.05
2022-12-25T13:17:28.877Z,8.90
2022-12-25T13:19:58.665Z,5.93
2022-12-25T13:22:31.856Z,5.85
2022-12-25T13:25:01.266Z,5.68
2022-12-25T13:27:30.640Z,5.18
2022-12-25T13:29:57.987Z,7.18
2022-12-25T13:32:30.893Z,10.48
2022-12-25T13:34:59.398Z,9.35
2022-12-25T13:37:28.999Z,17.48
2022-12-25T13:39:59.176Z,14.68
2022-12-25T13:42:32.576Z,17.77
2022-12-25T13:45:20.659Z,9.55
2022-12-25T13:47:53.098Z,15.65
2022-12-25T13:50:28.904Z,7.95
2022-12-25T13:53:14.118Z,7.40
2022-12-25T13:55:42.342Z,9.88
2022-12-25T13:58:27.408Z,9.93
2022-12-25T14:00:56.840Z,10.82
2022-12-25T14:03:34.848Z,5.22
2022-12-25T14:06:04.339Z,4.97
2022-12-25T14:08:33.602Z,7.28
2022-12-25T14:11:05.907Z,5.57
2022-12-25T14:13:37.450Z,6.72
2022-12-25T14:16:07.136Z,10.48
2022-12-25T14:18:34.368Z,8.32
2022-12-25T14:21:24.077Z,6.45
2022-12-25T14:23:50.988Z,4.65
2022-12-25T14:26:20.854Z,4.32
2022-12-25T14:29:16.756Z,4.53
2022-12-25T14:31:45.409Z,6.72
2022-12-25T14:34:17.965Z,8.45
2022-12-25T14:36:45.228Z,13.23
2022-12-25T14:39:33.464Z,8.95
2022-12-25T14:42:10.208Z,7.97
2022-12-25T14:44:39.489Z,15.15
2022-12-25T14:47:26.817Z,10.15
2022-12-25T14:49:54.686Z,7.45
2022-12-25T14:52:32.334Z,7.32
2022-12-25T14:55:05.951Z,6.55
2022-12-25T14:57:40.336Z,8.10
2022-12-25T15:00:21.020Z,8.40
2022-12-25T15:02:48.993Z,9.23
2022-12-25T15:05:41.817Z,7.32
2022-12-25T15:08:08.498Z,5.80
2022-12-25T15:13:22.249Z,7.05
2022-12-25T15:16:19.429Z,6.65
2022-12-25T15:18:50.564Z,4.88
2022-12-25T15:21:28.686Z,5.20
2022-12-25T15:23:59.881Z,4.63
2022-12-25T15:26:28.820Z,6.85
2022-12-25T15:28:55.460Z,9.43
2022-12-25T15:31:31.959Z,7.30
2022-12-25T15:34:01.239Z,7.15
2022-12-25T15:36:27.991Z,5.95
2022-12-25T15:38:54.992Z,8.95
2022-12-25T15:41:53.398Z,7.75
2022-12-25T15:44:20.192Z,7.22
2022-12-25T15:46:47.475Z,6.20
2022-12-25T15:49:15.235Z,14.15
2022-12-25T15:51:43.263Z,7.57
2022-12-25T15:54:10.516Z,6.32
2022-12-25T15:56:43.557Z,12.98
2022-12-25T15:59:14.392Z,8.65
2022-12-25T16:01:45.674Z,12.13
2022-12-25T16:04:12.756Z,6.57
2022-12-25T16:06:39.301Z,4.65
2022-12-25T16:09:05.979Z,4.82
2022-12-25T16:11:32.527Z,6.32
2022-12-25T16:13:59.308Z,6.20
2022-12-25T16:16:26.156Z,6.70
2022-12-25T16:18:52.754Z,4.15
2022-12-25T16:21:21.079Z,6.07
2022-12-25T16:23:47.935Z,7.32
2022-12-25T16:26:14.903Z,6.82
2022-12-25T16:28:41.572Z,7.32
2022-12-25T16:31:08.344Z,8.13
2022-12-25T16:33:34.929Z,5.80
2022-12-25T16:36:01.624Z,6.60
2022-12-25T16:38:28.194Z,3.83
2022-12-25T16:41:00.162Z,4.28
2022-12-25T16:43:27.944Z,9.23
2022-12-25T16:45:54.724Z,8.55
2022-12-25T16:48:21.626Z,5.90
2022-12-25T16:50:48.281Z,6.20
2022-12-25T16:53:14.925Z,4.72
2022-12-25T16:55:41.620Z,5.60
2022-12-25T16:58:08.312Z,4.57
2022-12-25T17:00:37.095Z,4.82
2022-12-25T17:03:03.925Z,4.35
2022-12-25T17:05:33.567Z,4.13
2022-12-25T17:08:00.185Z,5.30
2022-12-25T17:10:27.102Z,4.22
2022-12-25T17:12:54.032Z,3.75
2022-12-25T17:15:21.970Z,7.43
2022-12-25T17:17:48.533Z,5.35
2022-12-25T17:20:15.263Z,13.00
2022-12-25T17:22:41.863Z,9.98
2022-12-25T17:25:09.016Z,5.80
2022-12-25T17:27:35.622Z,7.05
2022-12-25T17:30:02.218Z,6.35
2022-12-25T17:32:28.786Z,4.88
2022-12-25T17:34:55.435Z,5.22
2022-12-25T17:37:22.157Z,6.82
2022-12-25T17:39:48.902Z,3.90
2022-12-25T17:42:15.549Z,4.05
2022-12-25T17:44:42.409Z,4.47
2022-12-25T17:47:09.096Z,6.43
2022-12-25T17:49:37.883Z,5.18
2022-12-25T17:52:04.586Z,4.38
2022-12-25T17:54:31.347Z,4.43
2022-12-25T17:56:57.969Z,4.55
2022-12-25T17:59:29.706Z,3.85
2022-12-25T18:01:56.588Z,5.00
2022-12-25T18:04:24.315Z,4.18
2022-12-25T18:06:51.288Z,5.40
2022-12-25T18:09:18.854Z,19.17
2022-12-25T18:11:45.827Z,8.73
2022-12-25T18:14:15.226Z,6.78
2022-12-25T18:16:44.386Z,55.28
2022-12-25T18:19:12.786Z,17.92
2022-12-25T18:21:39.865Z,15.52
2022-12-25T18:24:07.606Z,8.40
2022-12-25T18:26:35.141Z,5.90
2022-12-25T18:29:03.004Z,6.53
2022-12-25T18:31:32.566Z,6.80
2022-12-25T18:34:00.352Z,5.22
2022-12-25T18:36:29.072Z,4.60
2022-12-25T18:38:57.430Z,4.60
2022-12-25T18:41:24.470Z,5.00
2022-12-25T18:43:53.461Z,5.75
2022-12-25T18:46:24.938Z,4.10
2022-12-25T18:48:53.249Z,16.77
2022-12-25T18:51:19.989Z,9.50
2022-12-25T18:53:46.808Z,5.20
2022-12-25T18:56:15.647Z,4.15
2022-12-25T18:58:43.284Z,5.90
2022-12-25T19:01:18.106Z,3.50
2022-12-25T19:03:46.076Z,3.08
2022-12-25T19:06:33.078Z,3.22
2022-12-25T19:08:59.744Z,3.40
2022-12-25T19:11:26.584Z,3.60
2022-12-25T19:13:53.297Z,3.40
2022-12-25T19:16:20.237Z,3.83
2022-12-25T19:18:46.834Z,3.20
2022-12-25T19:21:13.471Z,3.33
2022-12-25T19:23:40.111Z,3.50
2022-12-25T19:26:08.112Z,4.43
2022-12-25T19:28:35.584Z,3.85
2022-12-25T19:31:04.211Z,3.38
2022-12-25T19:33:31.859Z,4.63
2022-12-25T19:36:02.975Z,6.00
2022-12-25T19:38:29.663Z,3.50
2022-12-25T19:41:02.874Z,3.30
2022-12-25T19:43:35.326Z,3.40
2022-12-25T19:46:02.683Z,3.88
2022-12-25T19:48:30.591Z,3.30
2022-12-25T19:50:57.266Z,3.45
2022-12-25T19:53:24.533Z,3.25
2022-12-25T19:55:55.456Z,3.38
2022-12-25T19:58:23.596Z,3.20
2022-12-25T20:00:57.905Z,3.20
2022-12-25T20:03:25.113Z,3.58
2022-12-25T20:05:52.425Z,3.45
2022-12-25T20:08:19.678Z,6.10
2022-12-25T20:10:46.587Z,4.47
2022-12-25T20:13:13.235Z,3.33
2022-12-25T20:15:39.995Z,3.60
2022-12-25T20:18:06.733Z,4.50
2022-12-25T20:20:33.355Z,3.15
2022-12-25T20:22:59.971Z,4.18
2022-12-25T20:25:26.708Z,3.53
2022-12-25T20:27:53.429Z,3.20
2022-12-25T20:30:19.990Z,3.65
2022-12-25T20:32:50.339Z,3.13
2022-12-25T20:35:17.675Z,2.90
2022-12-25T20:37:44.708Z,3.40
2022-12-25T20:40:12.101Z,3.35
2022-12-25T20:42:38.697Z,3.25
2022-12-25T20:45:07.464Z,3.65
2022-12-25T20:47:34.920Z,3.33
2022-12-25T20:50:01.951Z,3.15
2022-12-25T20:52:28.545Z,3.40
2022-12-25T20:54:55.192Z,3.50
2022-12-25T20:57:22.109Z,5.30
2022-12-25T20:59:48.755Z,4.45
2022-12-25T21:02:35.042Z,4.38
2022-12-25T21:05:02.275Z,3.60
2022-12-25T21:07:29.087Z,3.13
2022-12-25T21:09:55.837Z,3.80
2022-12-25T21:12:22.419Z,3.95
2022-12-25T21:14:49.030Z,3.80
2022-12-25T21:17:16.884Z,4.18
2022-12-25T21:19:43.605Z,3.90
2022-12-25T21:22:10.352Z,4.25
2022-12-25T21:24:37.120Z,4.15
2022-12-25T21:27:03.804Z,3.78
2022-12-25T21:29:30.828Z,4.20
2022-12-25T21:32:15.886Z,4.10
2022-12-25T21:34:42.580Z,4.60
2022-12-25T21:37:09.142Z,4.20
2022-12-25T21:39:35.818Z,4.00
2022-12-25T21:42:04.658Z,3.70
2022-12-25T21:44:31.407Z,4.63
2022-12-25T21:46:57.966Z,4.40
2022-12-25T21:49:43.431Z,4.45
2022-12-25T21:52:10.528Z,3.72
2022-12-25T21:54:37.497Z,3.33
2022-12-25T21:57:05.034Z,4.07
2022-12-25T21:59:31.654Z,3.55
2022-12-25T22:01:59.490Z,3.65
2022-12-25T22:04:26.587Z,4.10
2022-12-25T22:07:11.826Z,4.38
2022-12-25T22:09:38.614Z,4.75
2022-12-25T22:12:27.386Z,4.25
2022-12-25T22:15:02.762Z,4.30
2022-12-25T22:17:51.911Z,4.55
2022-12-25T22:20:24.287Z,5.07
2022-12-25T22:22:51.350Z,5.95
2022-12-25T22:25:18.895Z,5.60
2022-12-25T22:27:46.932Z,6.55
2022-12-25T22:30:16.292Z,5.88
2022-12-25T22:32:43.492Z,5.63
2022-12-25T22:35:12.477Z,6.82
2022-12-25T22:37:40.215Z,6.25
2022-12-25T22:40:07.994Z,6.25
2022-12-25T22:42:35.089Z,6.60
2022-12-25T22:45:02.475Z,6.72
2022-12-25T22:47:29.157Z,6.82
2022-12-25T22:49:55.830Z,6.78
2022-12-25T22:52:22.644Z,7.22
2022-12-25T22:54:49.356Z,6.85
2022-12-25T22:57:15.971Z,7.57
2022-12-25T22:59:42.603Z,7.13
2022-12-25T23:02:09.287Z,7.47
2022-12-25T23:04:36.094Z,7.40
2022-12-25T23:07:02.792Z,7.90
2022-12-25T23:09:31.079Z,7.35
2022-12-25T23:11:58.744Z,6.53
2022-12-25T23:14:41.771Z,6.85
2022-12-25T23:17:29.883Z,7.47
2022-12-25T23:20:18.239Z,8.50
2022-12-25T23:23:04.615Z,8.68
2022-12-25T23:25:49.923Z,8.88
2022-12-25T23:28:36.560Z,9.90
2022-12-25T23:31:03.365Z,10.07
2022-12-25T23:33:30.160Z,9.55
2022-12-25T23:35:56.777Z,11.75
2022-12-25T23:38:23.357Z,10.60
2022-12-25T23:40:49.956Z,9.82
2022-12-25T23:43:16.836Z,11.25
2022-12-25T23:45:43.447Z,10.00
2022-12-25T23:48:10.006Z,9.90
2022-12-25T23:50:37.491Z,11.70
2022-12-25T23:53:04.068Z,9.93
2022-12-25T23:55:30.713Z,12.05
2022-12-25T23:57:57.277Z,10.70
